<?xml version="1.0" encoding="UTF-8" standalone="no" ?>
<gpx xmlns="http://www.topografix.com/GPX/1/1" xmlns:xsi="http://www.w3.org/2001/XMLSchema-instance" xsi:schemaLocation="http://www.topografix.com/GPX/1/1 http://www.topografix.com/GPX/1/1/gpx.xsd" version="1.1" creator="VisuGPX - https://www.visugpx.com">
  <metadata>
    <name>VTT Sud Bourgogne</name>
    <desc><![CDATA[Cluny - Tournus : circuits VTT XC]]></desc>
  </metadata>
  <trk>
    <name><![CDATA[9 SUR_LES_HAUTEURS_DE_CLUNY - Rouge]]></name>
    <extensions>
      <line xmlns="http://www.topografix.com/GPX/gpx_style/0/2">
        <color>8a2200</color>
        <width>4</width>
      </line>
    </extensions>
    <trkseg>
      <trkpt lat="46.43156" lon="4.66748">
        <ele>236</ele>
        <time>2020-09-22T10:11:34Z</time>
      </trkpt>
      <trkpt lat="46.4308" lon="4.66753">
        <ele>237</ele>
        <time>2020-09-22T10:11:52Z</time>
      </trkpt>
      <trkpt lat="46.43056" lon="4.66758">
        <ele>238</ele>
        <time>2020-09-22T10:11:57Z</time>
      </trkpt>
      <trkpt lat="46.43023" lon="4.66772">
        <ele>239</ele>
        <time>2020-09-22T10:12:05Z</time>
      </trkpt>
      <trkpt lat="46.43011" lon="4.66774">
        <ele>239</ele>
        <time>2020-09-22T10:12:08Z</time>
      </trkpt>
      <trkpt lat="46.42994" lon="4.66773">
        <ele>240</ele>
        <time>2020-09-22T10:12:12Z</time>
      </trkpt>
      <trkpt lat="46.42951" lon="4.66763">
        <ele>241</ele>
        <time>2020-09-22T10:12:22Z</time>
      </trkpt>
      <trkpt lat="46.4276" lon="4.66677">
        <ele>243</ele>
        <time>2020-09-22T10:13:09Z</time>
      </trkpt>
      <trkpt lat="46.42684" lon="4.6663">
        <ele>243</ele>
        <time>2020-09-22T10:13:28Z</time>
      </trkpt>
      <trkpt lat="46.42651" lon="4.66614">
        <ele>243</ele>
        <time>2020-09-22T10:13:37Z</time>
      </trkpt>
      <trkpt lat="46.42628" lon="4.66608">
        <ele>243</ele>
        <time>2020-09-22T10:13:42Z</time>
      </trkpt>
      <trkpt lat="46.42611" lon="4.66611">
        <ele>244</ele>
        <time>2020-09-22T10:13:46Z</time>
      </trkpt>
      <trkpt lat="46.4258" lon="4.66627">
        <ele>245</ele>
        <time>2020-09-22T10:13:54Z</time>
      </trkpt>
      <trkpt lat="46.42565" lon="4.66624">
        <ele>245</ele>
        <time>2020-09-22T10:13:57Z</time>
      </trkpt>
      <trkpt lat="46.42569" lon="4.66635">
        <ele>245</ele>
        <time>2020-09-22T10:13:59Z</time>
      </trkpt>
      <trkpt lat="46.42574" lon="4.6664">
        <ele>245</ele>
        <time>2020-09-22T10:14:01Z</time>
      </trkpt>
      <trkpt lat="46.42635" lon="4.66668">
        <ele>245</ele>
        <time>2020-09-22T10:14:16Z</time>
      </trkpt>
      <trkpt lat="46.42641" lon="4.6668">
        <ele>246</ele>
        <time>2020-09-22T10:14:18Z</time>
      </trkpt>
      <trkpt lat="46.42641" lon="4.66696">
        <ele>246</ele>
        <time>2020-09-22T10:14:21Z</time>
      </trkpt>
      <trkpt lat="46.42555" lon="4.66646">
        <ele>245</ele>
        <time>2020-09-22T10:14:42Z</time>
      </trkpt>
      <trkpt lat="46.42387" lon="4.66561">
        <ele>247</ele>
        <time>2020-09-22T10:15:24Z</time>
      </trkpt>
      <trkpt lat="46.42385" lon="4.66563">
        <ele>247</ele>
        <time>2020-09-22T10:15:24Z</time>
      </trkpt>
      <trkpt lat="46.4237" lon="4.66624">
        <ele>249</ele>
        <time>2020-09-22T10:15:35Z</time>
      </trkpt>
      <trkpt lat="46.42366" lon="4.66629">
        <ele>249</ele>
        <time>2020-09-22T10:15:36Z</time>
      </trkpt>
      <trkpt lat="46.42419" lon="4.66657">
        <ele>248</ele>
        <time>2020-09-22T10:15:49Z</time>
      </trkpt>
      <trkpt lat="46.42437" lon="4.66664">
        <ele>247</ele>
        <time>2020-09-22T10:15:53Z</time>
      </trkpt>
      <trkpt lat="46.42596" lon="4.66705">
        <ele>246</ele>
        <time>2020-09-22T10:16:31Z</time>
      </trkpt>
      <trkpt lat="46.42612" lon="4.66712">
        <ele>246</ele>
        <time>2020-09-22T10:16:35Z</time>
      </trkpt>
      <trkpt lat="46.42631" lon="4.66729">
        <ele>247</ele>
        <time>2020-09-22T10:16:40Z</time>
      </trkpt>
      <trkpt lat="46.42627" lon="4.66759">
        <ele>247</ele>
        <time>2020-09-22T10:16:45Z</time>
      </trkpt>
      <trkpt lat="46.42629" lon="4.6679">
        <ele>248</ele>
        <time>2020-09-22T10:16:50Z</time>
      </trkpt>
      <trkpt lat="46.42584" lon="4.66854">
        <ele>247</ele>
        <time>2020-09-22T10:17:05Z</time>
      </trkpt>
      <trkpt lat="46.42568" lon="4.66889">
        <ele>247</ele>
        <time>2020-09-22T10:17:12Z</time>
      </trkpt>
      <trkpt lat="46.42559" lon="4.6693">
        <ele>248</ele>
        <time>2020-09-22T10:17:19Z</time>
      </trkpt>
      <trkpt lat="46.42548" lon="4.67028">
        <ele>252</ele>
        <time>2020-09-22T10:17:35Z</time>
      </trkpt>
      <trkpt lat="46.42525" lon="4.67014">
        <ele>252</ele>
        <time>2020-09-22T10:17:40Z</time>
      </trkpt>
      <trkpt lat="46.42415" lon="4.66934">
        <ele>256</ele>
        <time>2020-09-22T10:18:09Z</time>
      </trkpt>
      <trkpt lat="46.42394" lon="4.66922">
        <ele>257</ele>
        <time>2020-09-22T10:18:14Z</time>
      </trkpt>
      <trkpt lat="46.42387" lon="4.66934">
        <ele>258</ele>
        <time>2020-09-22T10:18:17Z</time>
      </trkpt>
      <trkpt lat="46.42374" lon="4.66948">
        <ele>259</ele>
        <time>2020-09-22T10:18:21Z</time>
      </trkpt>
      <trkpt lat="46.42349" lon="4.66992">
        <ele>260</ele>
        <time>2020-09-22T10:18:30Z</time>
      </trkpt>
      <trkpt lat="46.42328" lon="4.67049">
        <ele>263</ele>
        <time>2020-09-22T10:18:40Z</time>
      </trkpt>
      <trkpt lat="46.42308" lon="4.67087">
        <ele>266</ele>
        <time>2020-09-22T10:18:48Z</time>
      </trkpt>
      <trkpt lat="46.42245" lon="4.67168">
        <ele>270</ele>
        <time>2020-09-22T10:19:08Z</time>
      </trkpt>
      <trkpt lat="46.42226" lon="4.67201">
        <ele>272</ele>
        <time>2020-09-22T10:19:15Z</time>
      </trkpt>
      <trkpt lat="46.42187" lon="4.67256">
        <ele>275</ele>
        <time>2020-09-22T10:19:27Z</time>
      </trkpt>
      <trkpt lat="46.42148" lon="4.67298">
        <ele>277</ele>
        <time>2020-09-22T10:19:39Z</time>
      </trkpt>
      <trkpt lat="46.42136" lon="4.67316">
        <ele>278</ele>
        <time>2020-09-22T10:19:43Z</time>
      </trkpt>
      <trkpt lat="46.42122" lon="4.67368">
        <ele>279</ele>
        <time>2020-09-22T10:19:52Z</time>
      </trkpt>
      <trkpt lat="46.42068" lon="4.67468">
        <ele>289</ele>
        <time>2020-09-22T10:20:12Z</time>
      </trkpt>
      <trkpt lat="46.41973" lon="4.67663">
        <ele>315</ele>
        <time>2020-09-22T10:20:51Z</time>
      </trkpt>
      <trkpt lat="46.41952" lon="4.677">
        <ele>321</ele>
        <time>2020-09-22T10:20:58Z</time>
      </trkpt>
      <trkpt lat="46.41905" lon="4.67756">
        <ele>329</ele>
        <time>2020-09-22T10:21:13Z</time>
      </trkpt>
      <trkpt lat="46.41896" lon="4.6777">
        <ele>330</ele>
        <time>2020-09-22T10:21:16Z</time>
      </trkpt>
      <trkpt lat="46.41858" lon="4.67856">
        <ele>335</ele>
        <time>2020-09-22T10:21:32Z</time>
      </trkpt>
      <trkpt lat="46.41833" lon="4.67957">
        <ele>341</ele>
        <time>2020-09-22T10:21:49Z</time>
      </trkpt>
      <trkpt lat="46.41823" lon="4.68048">
        <ele>346</ele>
        <time>2020-09-22T10:22:04Z</time>
      </trkpt>
      <trkpt lat="46.41798" lon="4.6812">
        <ele>346</ele>
        <time>2020-09-22T10:22:17Z</time>
      </trkpt>
      <trkpt lat="46.41784" lon="4.68172">
        <ele>348</ele>
        <time>2020-09-22T10:22:26Z</time>
      </trkpt>
      <trkpt lat="46.41776" lon="4.6819">
        <ele>350</ele>
        <time>2020-09-22T10:22:30Z</time>
      </trkpt>
      <trkpt lat="46.41724" lon="4.68255">
        <ele>352</ele>
        <time>2020-09-22T10:22:46Z</time>
      </trkpt>
      <trkpt lat="46.41706" lon="4.68271">
        <ele>351</ele>
        <time>2020-09-22T10:22:51Z</time>
      </trkpt>
      <trkpt lat="46.41682" lon="4.68285">
        <ele>351</ele>
        <time>2020-09-22T10:22:57Z</time>
      </trkpt>
      <trkpt lat="46.41659" lon="4.6831">
        <ele>353</ele>
        <time>2020-09-22T10:23:03Z</time>
      </trkpt>
      <trkpt lat="46.41629" lon="4.68348">
        <ele>356</ele>
        <time>2020-09-22T10:23:13Z</time>
      </trkpt>
      <trkpt lat="46.41591" lon="4.68405">
        <ele>364</ele>
        <time>2020-09-22T10:23:25Z</time>
      </trkpt>
      <trkpt lat="46.41564" lon="4.68433">
        <ele>368</ele>
        <time>2020-09-22T10:23:33Z</time>
      </trkpt>
      <trkpt lat="46.41505" lon="4.68515">
        <ele>375</ele>
        <time>2020-09-22T10:23:52Z</time>
      </trkpt>
      <trkpt lat="46.41483" lon="4.68559">
        <ele>379</ele>
        <time>2020-09-22T10:24:01Z</time>
      </trkpt>
      <trkpt lat="46.4143" lon="4.68638">
        <ele>383</ele>
        <time>2020-09-22T10:24:19Z</time>
      </trkpt>
      <trkpt lat="46.41421" lon="4.68656">
        <ele>384</ele>
        <time>2020-09-22T10:24:22Z</time>
      </trkpt>
      <trkpt lat="46.41399" lon="4.68686">
        <ele>388</ele>
        <time>2020-09-22T10:24:29Z</time>
      </trkpt>
      <trkpt lat="46.41391" lon="4.68704">
        <ele>390</ele>
        <time>2020-09-22T10:24:33Z</time>
      </trkpt>
      <trkpt lat="46.41377" lon="4.68767">
        <ele>395</ele>
        <time>2020-09-22T10:24:43Z</time>
      </trkpt>
      <trkpt lat="46.41363" lon="4.68769">
        <ele>395</ele>
        <time>2020-09-22T10:24:47Z</time>
      </trkpt>
      <trkpt lat="46.41354" lon="4.68766">
        <ele>395</ele>
        <time>2020-09-22T10:24:49Z</time>
      </trkpt>
      <trkpt lat="46.41332" lon="4.68765">
        <ele>395</ele>
        <time>2020-09-22T10:24:54Z</time>
      </trkpt>
      <trkpt lat="46.41312" lon="4.68774">
        <ele>399</ele>
        <time>2020-09-22T10:24:59Z</time>
      </trkpt>
      <trkpt lat="46.41302" lon="4.68784">
        <ele>401</ele>
        <time>2020-09-22T10:25:02Z</time>
      </trkpt>
      <trkpt lat="46.41272" lon="4.68835">
        <ele>408</ele>
        <time>2020-09-22T10:25:13Z</time>
      </trkpt>
      <trkpt lat="46.41252" lon="4.68891">
        <ele>416</ele>
        <time>2020-09-22T10:25:23Z</time>
      </trkpt>
      <trkpt lat="46.41222" lon="4.68998">
        <ele>435</ele>
        <time>2020-09-22T10:25:41Z</time>
      </trkpt>
      <trkpt lat="46.41215" lon="4.69031">
        <ele>439</ele>
        <time>2020-09-22T10:25:47Z</time>
      </trkpt>
      <trkpt lat="46.41206" lon="4.69096">
        <ele>446</ele>
        <time>2020-09-22T10:25:57Z</time>
      </trkpt>
      <trkpt lat="46.4118" lon="4.6915">
        <ele>447</ele>
        <time>2020-09-22T10:26:08Z</time>
      </trkpt>
      <trkpt lat="46.41193" lon="4.69169">
        <ele>450</ele>
        <time>2020-09-22T10:26:12Z</time>
      </trkpt>
      <trkpt lat="46.41219" lon="4.69196">
        <ele>455</ele>
        <time>2020-09-22T10:26:20Z</time>
      </trkpt>
      <trkpt lat="46.41248" lon="4.69243">
        <ele>460</ele>
        <time>2020-09-22T10:26:30Z</time>
      </trkpt>
      <trkpt lat="46.41257" lon="4.69267">
        <ele>460</ele>
        <time>2020-09-22T10:26:34Z</time>
      </trkpt>
      <trkpt lat="46.41258" lon="4.69278">
        <ele>460</ele>
        <time>2020-09-22T10:26:36Z</time>
      </trkpt>
      <trkpt lat="46.41257" lon="4.69291">
        <ele>460</ele>
        <time>2020-09-22T10:26:38Z</time>
      </trkpt>
      <trkpt lat="46.41249" lon="4.69306">
        <ele>461</ele>
        <time>2020-09-22T10:26:41Z</time>
      </trkpt>
      <trkpt lat="46.41229" lon="4.6934">
        <ele>463</ele>
        <time>2020-09-22T10:26:49Z</time>
      </trkpt>
      <trkpt lat="46.41217" lon="4.69353">
        <ele>465</ele>
        <time>2020-09-22T10:26:52Z</time>
      </trkpt>
      <trkpt lat="46.41208" lon="4.69358">
        <ele>466</ele>
        <time>2020-09-22T10:26:54Z</time>
      </trkpt>
      <trkpt lat="46.41109" lon="4.69393">
        <ele>480</ele>
        <time>2020-09-22T10:27:18Z</time>
      </trkpt>
      <trkpt lat="46.41032" lon="4.69409">
        <ele>487</ele>
        <time>2020-09-22T10:27:36Z</time>
      </trkpt>
      <trkpt lat="46.4099" lon="4.6941">
        <ele>489</ele>
        <time>2020-09-22T10:27:46Z</time>
      </trkpt>
      <trkpt lat="46.40972" lon="4.69413">
        <ele>490</ele>
        <time>2020-09-22T10:27:50Z</time>
      </trkpt>
      <trkpt lat="46.40929" lon="4.69434">
        <ele>495</ele>
        <time>2020-09-22T10:28:01Z</time>
      </trkpt>
      <trkpt lat="46.40879" lon="4.69464">
        <ele>503</ele>
        <time>2020-09-22T10:28:14Z</time>
      </trkpt>
      <trkpt lat="46.40892" lon="4.69473">
        <ele>504</ele>
        <time>2020-09-22T10:28:17Z</time>
      </trkpt>
      <trkpt lat="46.40919" lon="4.69499">
        <ele>508</ele>
        <time>2020-09-22T10:28:24Z</time>
      </trkpt>
      <trkpt lat="46.40949" lon="4.69544">
        <ele>509</ele>
        <time>2020-09-22T10:28:35Z</time>
      </trkpt>
      <trkpt lat="46.40961" lon="4.69568">
        <ele>510</ele>
        <time>2020-09-22T10:28:39Z</time>
      </trkpt>
      <trkpt lat="46.40967" lon="4.69589">
        <ele>510</ele>
        <time>2020-09-22T10:28:43Z</time>
      </trkpt>
      <trkpt lat="46.40973" lon="4.69649">
        <ele>511</ele>
        <time>2020-09-22T10:28:53Z</time>
      </trkpt>
      <trkpt lat="46.4098" lon="4.69682">
        <ele>509</ele>
        <time>2020-09-22T10:28:58Z</time>
      </trkpt>
      <trkpt lat="46.40994" lon="4.697">
        <ele>505</ele>
        <time>2020-09-22T10:29:03Z</time>
      </trkpt>
      <trkpt lat="46.41008" lon="4.6971">
        <ele>504</ele>
        <time>2020-09-22T10:29:06Z</time>
      </trkpt>
      <trkpt lat="46.41049" lon="4.69732">
        <ele>505</ele>
        <time>2020-09-22T10:29:17Z</time>
      </trkpt>
      <trkpt lat="46.41067" lon="4.69738">
        <ele>505</ele>
        <time>2020-09-22T10:29:21Z</time>
      </trkpt>
      <trkpt lat="46.41082" lon="4.69752">
        <ele>506</ele>
        <time>2020-09-22T10:29:25Z</time>
      </trkpt>
      <trkpt lat="46.41126" lon="4.69773">
        <ele>508</ele>
        <time>2020-09-22T10:29:36Z</time>
      </trkpt>
      <trkpt lat="46.41173" lon="4.69805">
        <ele>512</ele>
        <time>2020-09-22T10:29:48Z</time>
      </trkpt>
      <trkpt lat="46.4122" lon="4.69832">
        <ele>515</ele>
        <time>2020-09-22T10:30:00Z</time>
      </trkpt>
      <trkpt lat="46.41257" lon="4.6986">
        <ele>517</ele>
        <time>2020-09-22T10:30:10Z</time>
      </trkpt>
      <trkpt lat="46.41347" lon="4.69911">
        <ele>523</ele>
        <time>2020-09-22T10:30:32Z</time>
      </trkpt>
      <trkpt lat="46.41368" lon="4.69918">
        <ele>523</ele>
        <time>2020-09-22T10:30:37Z</time>
      </trkpt>
      <trkpt lat="46.41388" lon="4.69921">
        <ele>524</ele>
        <time>2020-09-22T10:30:42Z</time>
      </trkpt>
      <trkpt lat="46.41459" lon="4.69917">
        <ele>529</ele>
        <time>2020-09-22T10:30:58Z</time>
      </trkpt>
      <trkpt lat="46.41498" lon="4.69941">
        <ele>532</ele>
        <time>2020-09-22T10:31:08Z</time>
      </trkpt>
      <trkpt lat="46.41515" lon="4.69942">
        <ele>535</ele>
        <time>2020-09-22T10:31:12Z</time>
      </trkpt>
      <trkpt lat="46.41553" lon="4.69967">
        <ele>541</ele>
        <time>2020-09-22T10:31:22Z</time>
      </trkpt>
      <trkpt lat="46.41595" lon="4.69984">
        <ele>548</ele>
        <time>2020-09-22T10:31:32Z</time>
      </trkpt>
      <trkpt lat="46.41637" lon="4.70014">
        <ele>550</ele>
        <time>2020-09-22T10:31:43Z</time>
      </trkpt>
      <trkpt lat="46.41657" lon="4.70007">
        <ele>551</ele>
        <time>2020-09-22T10:31:48Z</time>
      </trkpt>
      <trkpt lat="46.41713" lon="4.70049">
        <ele>543</ele>
        <time>2020-09-22T10:32:03Z</time>
      </trkpt>
      <trkpt lat="46.41735" lon="4.70075">
        <ele>537</ele>
        <time>2020-09-22T10:32:09Z</time>
      </trkpt>
      <trkpt lat="46.41745" lon="4.7008">
        <ele>535</ele>
        <time>2020-09-22T10:32:12Z</time>
      </trkpt>
      <trkpt lat="46.41758" lon="4.70101">
        <ele>531</ele>
        <time>2020-09-22T10:32:16Z</time>
      </trkpt>
      <trkpt lat="46.4178" lon="4.70119">
        <ele>527</ele>
        <time>2020-09-22T10:32:22Z</time>
      </trkpt>
      <trkpt lat="46.41817" lon="4.70157">
        <ele>518</ele>
        <time>2020-09-22T10:32:33Z</time>
      </trkpt>
      <trkpt lat="46.41824" lon="4.70159">
        <ele>517</ele>
        <time>2020-09-22T10:32:34Z</time>
      </trkpt>
      <trkpt lat="46.41841" lon="4.70149">
        <ele>517</ele>
        <time>2020-09-22T10:32:39Z</time>
      </trkpt>
      <trkpt lat="46.41854" lon="4.70135">
        <ele>519</ele>
        <time>2020-09-22T10:32:43Z</time>
      </trkpt>
      <trkpt lat="46.41877" lon="4.70122">
        <ele>519</ele>
        <time>2020-09-22T10:32:48Z</time>
      </trkpt>
      <trkpt lat="46.4191" lon="4.70113">
        <ele>518</ele>
        <time>2020-09-22T10:32:56Z</time>
      </trkpt>
      <trkpt lat="46.41928" lon="4.70113">
        <ele>516</ele>
        <time>2020-09-22T10:33:00Z</time>
      </trkpt>
      <trkpt lat="46.41976" lon="4.70121">
        <ele>511</ele>
        <time>2020-09-22T10:33:12Z</time>
      </trkpt>
      <trkpt lat="46.41989" lon="4.70128">
        <ele>509</ele>
        <time>2020-09-22T10:33:15Z</time>
      </trkpt>
      <trkpt lat="46.41993" lon="4.70133">
        <ele>509</ele>
        <time>2020-09-22T10:33:16Z</time>
      </trkpt>
      <trkpt lat="46.42089" lon="4.70115">
        <ele>510</ele>
        <time>2020-09-22T10:33:39Z</time>
      </trkpt>
      <trkpt lat="46.42191" lon="4.70009">
        <ele>516</ele>
        <time>2020-09-22T10:34:08Z</time>
      </trkpt>
      <trkpt lat="46.42209" lon="4.69998">
        <ele>517</ele>
        <time>2020-09-22T10:34:13Z</time>
      </trkpt>
      <trkpt lat="46.4223" lon="4.69992">
        <ele>518</ele>
        <time>2020-09-22T10:34:18Z</time>
      </trkpt>
      <trkpt lat="46.42308" lon="4.69998">
        <ele>518</ele>
        <time>2020-09-22T10:34:36Z</time>
      </trkpt>
      <trkpt lat="46.42362" lon="4.69984">
        <ele>515</ele>
        <time>2020-09-22T10:34:49Z</time>
      </trkpt>
      <trkpt lat="46.42386" lon="4.69972">
        <ele>512</ele>
        <time>2020-09-22T10:34:55Z</time>
      </trkpt>
      <trkpt lat="46.42414" lon="4.69962">
        <ele>511</ele>
        <time>2020-09-22T10:35:01Z</time>
      </trkpt>
      <trkpt lat="46.4245" lon="4.69958">
        <ele>509</ele>
        <time>2020-09-22T10:35:10Z</time>
      </trkpt>
      <trkpt lat="46.42485" lon="4.69959">
        <ele>508</ele>
        <time>2020-09-22T10:35:18Z</time>
      </trkpt>
      <trkpt lat="46.42502" lon="4.69961">
        <ele>508</ele>
        <time>2020-09-22T10:35:22Z</time>
      </trkpt>
      <trkpt lat="46.42542" lon="4.69971">
        <ele>508</ele>
        <time>2020-09-22T10:35:31Z</time>
      </trkpt>
      <trkpt lat="46.42583" lon="4.69985">
        <ele>507</ele>
        <time>2020-09-22T10:35:41Z</time>
      </trkpt>
      <trkpt lat="46.42621" lon="4.70009">
        <ele>507</ele>
        <time>2020-09-22T10:35:51Z</time>
      </trkpt>
      <trkpt lat="46.42637" lon="4.70023">
        <ele>507</ele>
        <time>2020-09-22T10:35:55Z</time>
      </trkpt>
      <trkpt lat="46.42651" lon="4.7004">
        <ele>507</ele>
        <time>2020-09-22T10:35:59Z</time>
      </trkpt>
      <trkpt lat="46.42693" lon="4.70123">
        <ele>508</ele>
        <time>2020-09-22T10:36:16Z</time>
      </trkpt>
      <trkpt lat="46.42742" lon="4.70199">
        <ele>509</ele>
        <time>2020-09-22T10:36:33Z</time>
      </trkpt>
      <trkpt lat="46.42759" lon="4.70217">
        <ele>510</ele>
        <time>2020-09-22T10:36:38Z</time>
      </trkpt>
      <trkpt lat="46.42805" lon="4.70257">
        <ele>508</ele>
        <time>2020-09-22T10:36:50Z</time>
      </trkpt>
      <trkpt lat="46.42829" lon="4.70274">
        <ele>506</ele>
        <time>2020-09-22T10:36:56Z</time>
      </trkpt>
      <trkpt lat="46.42913" lon="4.70355">
        <ele>508</ele>
        <time>2020-09-22T10:37:20Z</time>
      </trkpt>
      <trkpt lat="46.42937" lon="4.70387">
        <ele>507</ele>
        <time>2020-09-22T10:37:28Z</time>
      </trkpt>
      <trkpt lat="46.42947" lon="4.70411">
        <ele>507</ele>
        <time>2020-09-22T10:37:32Z</time>
      </trkpt>
      <trkpt lat="46.42951" lon="4.70444">
        <ele>505</ele>
        <time>2020-09-22T10:37:38Z</time>
      </trkpt>
      <trkpt lat="46.42949" lon="4.70462">
        <ele>504</ele>
        <time>2020-09-22T10:37:40Z</time>
      </trkpt>
      <trkpt lat="46.42924" lon="4.70502">
        <ele>507</ele>
        <time>2020-09-22T10:37:49Z</time>
      </trkpt>
      <trkpt lat="46.42892" lon="4.70538">
        <ele>510</ele>
        <time>2020-09-22T10:37:59Z</time>
      </trkpt>
      <trkpt lat="46.42816" lon="4.70592">
        <ele>520</ele>
        <time>2020-09-22T10:38:18Z</time>
      </trkpt>
      <trkpt lat="46.42803" lon="4.70604">
        <ele>519</ele>
        <time>2020-09-22T10:38:22Z</time>
      </trkpt>
      <trkpt lat="46.42795" lon="4.70619">
        <ele>517</ele>
        <time>2020-09-22T10:38:25Z</time>
      </trkpt>
      <trkpt lat="46.42786" lon="4.70659">
        <ele>509</ele>
        <time>2020-09-22T10:38:32Z</time>
      </trkpt>
      <trkpt lat="46.4277" lon="4.70679">
        <ele>508</ele>
        <time>2020-09-22T10:38:37Z</time>
      </trkpt>
      <trkpt lat="46.42757" lon="4.70701">
        <ele>509</ele>
        <time>2020-09-22T10:38:41Z</time>
      </trkpt>
      <trkpt lat="46.42731" lon="4.70758">
        <ele>509</ele>
        <time>2020-09-22T10:38:52Z</time>
      </trkpt>
      <trkpt lat="46.42724" lon="4.70784">
        <ele>510</ele>
        <time>2020-09-22T10:38:57Z</time>
      </trkpt>
      <trkpt lat="46.4272" lon="4.70847">
        <ele>514</ele>
        <time>2020-09-22T10:39:07Z</time>
      </trkpt>
      <trkpt lat="46.42731" lon="4.70874">
        <ele>515</ele>
        <time>2020-09-22T10:39:12Z</time>
      </trkpt>
      <trkpt lat="46.42737" lon="4.70882">
        <ele>515</ele>
        <time>2020-09-22T10:39:14Z</time>
      </trkpt>
      <trkpt lat="46.42838" lon="4.70998">
        <ele>512</ele>
        <time>2020-09-22T10:39:44Z</time>
      </trkpt>
      <trkpt lat="46.42857" lon="4.71023">
        <ele>512</ele>
        <time>2020-09-22T10:39:50Z</time>
      </trkpt>
      <trkpt lat="46.42875" lon="4.71049">
        <ele>512</ele>
        <time>2020-09-22T10:39:56Z</time>
      </trkpt>
      <trkpt lat="46.42888" lon="4.71084">
        <ele>513</ele>
        <time>2020-09-22T10:40:02Z</time>
      </trkpt>
      <trkpt lat="46.4289" lon="4.71107">
        <ele>513</ele>
        <time>2020-09-22T10:40:06Z</time>
      </trkpt>
      <trkpt lat="46.4288" lon="4.71172">
        <ele>514</ele>
        <time>2020-09-22T10:40:17Z</time>
      </trkpt>
      <trkpt lat="46.42866" lon="4.71213">
        <ele>515</ele>
        <time>2020-09-22T10:40:24Z</time>
      </trkpt>
      <trkpt lat="46.42849" lon="4.71236">
        <ele>516</ele>
        <time>2020-09-22T10:40:30Z</time>
      </trkpt>
      <trkpt lat="46.42845" lon="4.71255">
        <ele>516</ele>
        <time>2020-09-22T10:40:33Z</time>
      </trkpt>
      <trkpt lat="46.42848" lon="4.71316">
        <ele>517</ele>
        <time>2020-09-22T10:40:43Z</time>
      </trkpt>
      <trkpt lat="46.42864" lon="4.71428">
        <ele>521</ele>
        <time>2020-09-22T10:41:01Z</time>
      </trkpt>
      <trkpt lat="46.42865" lon="4.71446">
        <ele>522</ele>
        <time>2020-09-22T10:41:04Z</time>
      </trkpt>
      <trkpt lat="46.42861" lon="4.71526">
        <ele>528</ele>
        <time>2020-09-22T10:41:17Z</time>
      </trkpt>
      <trkpt lat="46.42865" lon="4.71552">
        <ele>529</ele>
        <time>2020-09-22T10:41:21Z</time>
      </trkpt>
      <trkpt lat="46.42873" lon="4.71566">
        <ele>529</ele>
        <time>2020-09-22T10:41:24Z</time>
      </trkpt>
      <trkpt lat="46.42899" lon="4.71594">
        <ele>527</ele>
        <time>2020-09-22T10:41:32Z</time>
      </trkpt>
      <trkpt lat="46.42904" lon="4.71597">
        <ele>526</ele>
        <time>2020-09-22T10:41:33Z</time>
      </trkpt>
      <trkpt lat="46.42929" lon="4.71597">
        <ele>524</ele>
        <time>2020-09-22T10:41:39Z</time>
      </trkpt>
      <trkpt lat="46.42954" lon="4.71604">
        <ele>523</ele>
        <time>2020-09-22T10:41:45Z</time>
      </trkpt>
      <trkpt lat="46.42971" lon="4.71625">
        <ele>524</ele>
        <time>2020-09-22T10:41:50Z</time>
      </trkpt>
      <trkpt lat="46.42993" lon="4.71643">
        <ele>524</ele>
        <time>2020-09-22T10:41:56Z</time>
      </trkpt>
      <trkpt lat="46.43037" lon="4.71644">
        <ele>523</ele>
        <time>2020-09-22T10:42:06Z</time>
      </trkpt>
      <trkpt lat="46.43059" lon="4.71648">
        <ele>523</ele>
        <time>2020-09-22T10:42:11Z</time>
      </trkpt>
      <trkpt lat="46.43104" lon="4.71661">
        <ele>523</ele>
        <time>2020-09-22T10:42:22Z</time>
      </trkpt>
      <trkpt lat="46.43146" lon="4.71665">
        <ele>522</ele>
        <time>2020-09-22T10:42:32Z</time>
      </trkpt>
      <trkpt lat="46.43165" lon="4.71676">
        <ele>522</ele>
        <time>2020-09-22T10:42:37Z</time>
      </trkpt>
      <trkpt lat="46.43178" lon="4.71691">
        <ele>522</ele>
        <time>2020-09-22T10:42:41Z</time>
      </trkpt>
      <trkpt lat="46.43201" lon="4.71702">
        <ele>523</ele>
        <time>2020-09-22T10:42:46Z</time>
      </trkpt>
      <trkpt lat="46.43206" lon="4.71709">
        <ele>523</ele>
        <time>2020-09-22T10:42:48Z</time>
      </trkpt>
      <trkpt lat="46.43217" lon="4.71698">
        <ele>522</ele>
        <time>2020-09-22T10:42:51Z</time>
      </trkpt>
      <trkpt lat="46.4325" lon="4.71687">
        <ele>521</ele>
        <time>2020-09-22T10:42:59Z</time>
      </trkpt>
      <trkpt lat="46.43266" lon="4.71676">
        <ele>519</ele>
        <time>2020-09-22T10:43:03Z</time>
      </trkpt>
      <trkpt lat="46.43313" lon="4.71634">
        <ele>517</ele>
        <time>2020-09-22T10:43:16Z</time>
      </trkpt>
      <trkpt lat="46.43383" lon="4.71581">
        <ele>519</ele>
        <time>2020-09-22T10:43:34Z</time>
      </trkpt>
      <trkpt lat="46.43448" lon="4.71517">
        <ele>520</ele>
        <time>2020-09-22T10:43:53Z</time>
      </trkpt>
      <trkpt lat="46.43464" lon="4.71504">
        <ele>520</ele>
        <time>2020-09-22T10:43:57Z</time>
      </trkpt>
      <trkpt lat="46.43487" lon="4.71492">
        <ele>520</ele>
        <time>2020-09-22T10:44:03Z</time>
      </trkpt>
      <trkpt lat="46.43544" lon="4.7144">
        <ele>517</ele>
        <time>2020-09-22T10:44:18Z</time>
      </trkpt>
      <trkpt lat="46.43579" lon="4.71419">
        <ele>514</ele>
        <time>2020-09-22T10:44:27Z</time>
      </trkpt>
      <trkpt lat="46.43615" lon="4.71392">
        <ele>515</ele>
        <time>2020-09-22T10:44:37Z</time>
      </trkpt>
      <trkpt lat="46.43638" lon="4.71379">
        <ele>516</ele>
        <time>2020-09-22T10:44:42Z</time>
      </trkpt>
      <trkpt lat="46.43644" lon="4.71372">
        <ele>516</ele>
        <time>2020-09-22T10:44:44Z</time>
      </trkpt>
      <trkpt lat="46.43678" lon="4.71355">
        <ele>519</ele>
        <time>2020-09-22T10:44:53Z</time>
      </trkpt>
      <trkpt lat="46.43689" lon="4.71352">
        <ele>520</ele>
        <time>2020-09-22T10:44:55Z</time>
      </trkpt>
      <trkpt lat="46.43695" lon="4.71355">
        <ele>521</ele>
        <time>2020-09-22T10:44:57Z</time>
      </trkpt>
      <trkpt lat="46.43708" lon="4.71342">
        <ele>522</ele>
        <time>2020-09-22T10:45:00Z</time>
      </trkpt>
      <trkpt lat="46.43724" lon="4.71331">
        <ele>524</ele>
        <time>2020-09-22T10:45:05Z</time>
      </trkpt>
      <trkpt lat="46.43747" lon="4.71322">
        <ele>527</ele>
        <time>2020-09-22T10:45:10Z</time>
      </trkpt>
      <trkpt lat="46.43782" lon="4.71314">
        <ele>531</ele>
        <time>2020-09-22T10:45:18Z</time>
      </trkpt>
      <trkpt lat="46.43795" lon="4.71315">
        <ele>533</ele>
        <time>2020-09-22T10:45:21Z</time>
      </trkpt>
      <trkpt lat="46.43817" lon="4.71323">
        <ele>536</ele>
        <time>2020-09-22T10:45:27Z</time>
      </trkpt>
      <trkpt lat="46.43827" lon="4.71324">
        <ele>537</ele>
        <time>2020-09-22T10:45:29Z</time>
      </trkpt>
      <trkpt lat="46.43852" lon="4.71316">
        <ele>539</ele>
        <time>2020-09-22T10:45:35Z</time>
      </trkpt>
      <trkpt lat="46.43926" lon="4.7128">
        <ele>539</ele>
        <time>2020-09-22T10:45:53Z</time>
      </trkpt>
      <trkpt lat="46.43988" lon="4.71262">
        <ele>536</ele>
        <time>2020-09-22T10:46:08Z</time>
      </trkpt>
      <trkpt lat="46.44034" lon="4.7124">
        <ele>532</ele>
        <time>2020-09-22T10:46:19Z</time>
      </trkpt>
      <trkpt lat="46.44075" lon="4.71231">
        <ele>529</ele>
        <time>2020-09-22T10:46:29Z</time>
      </trkpt>
      <trkpt lat="46.44105" lon="4.71232">
        <ele>526</ele>
        <time>2020-09-22T10:46:36Z</time>
      </trkpt>
      <trkpt lat="46.44129" lon="4.71236">
        <ele>523</ele>
        <time>2020-09-22T10:46:42Z</time>
      </trkpt>
      <trkpt lat="46.44145" lon="4.71242">
        <ele>521</ele>
        <time>2020-09-22T10:46:46Z</time>
      </trkpt>
      <trkpt lat="46.44161" lon="4.71257">
        <ele>522</ele>
        <time>2020-09-22T10:46:50Z</time>
      </trkpt>
      <trkpt lat="46.44174" lon="4.71278">
        <ele>521</ele>
        <time>2020-09-22T10:46:55Z</time>
      </trkpt>
      <trkpt lat="46.44198" lon="4.71302">
        <ele>517</ele>
        <time>2020-09-22T10:47:01Z</time>
      </trkpt>
      <trkpt lat="46.44224" lon="4.71317">
        <ele>512</ele>
        <time>2020-09-22T10:47:08Z</time>
      </trkpt>
      <trkpt lat="46.44251" lon="4.71338">
        <ele>507</ele>
        <time>2020-09-22T10:47:15Z</time>
      </trkpt>
      <trkpt lat="46.44318" lon="4.71363">
        <ele>492</ele>
        <time>2020-09-22T10:47:31Z</time>
      </trkpt>
      <trkpt lat="46.44336" lon="4.71387">
        <ele>490</ele>
        <time>2020-09-22T10:47:37Z</time>
      </trkpt>
      <trkpt lat="46.44343" lon="4.71401">
        <ele>490</ele>
        <time>2020-09-22T10:47:40Z</time>
      </trkpt>
      <trkpt lat="46.44356" lon="4.71399">
        <ele>490</ele>
        <time>2020-09-22T10:47:43Z</time>
      </trkpt>
      <trkpt lat="46.44371" lon="4.71434">
        <ele>489</ele>
        <time>2020-09-22T10:47:49Z</time>
      </trkpt>
      <trkpt lat="46.44384" lon="4.71429">
        <ele>489</ele>
        <time>2020-09-22T10:47:53Z</time>
      </trkpt>
      <trkpt lat="46.44398" lon="4.71431">
        <ele>489</ele>
        <time>2020-09-22T10:47:56Z</time>
      </trkpt>
      <trkpt lat="46.44432" lon="4.7146">
        <ele>488</ele>
        <time>2020-09-22T10:48:05Z</time>
      </trkpt>
      <trkpt lat="46.44472" lon="4.7151">
        <ele>488</ele>
        <time>2020-09-22T10:48:17Z</time>
      </trkpt>
      <trkpt lat="46.44482" lon="4.71519">
        <ele>488</ele>
        <time>2020-09-22T10:48:20Z</time>
      </trkpt>
      <trkpt lat="46.44491" lon="4.71525">
        <ele>488</ele>
        <time>2020-09-22T10:48:22Z</time>
      </trkpt>
      <trkpt lat="46.44517" lon="4.71533">
        <ele>489</ele>
        <time>2020-09-22T10:48:29Z</time>
      </trkpt>
      <trkpt lat="46.44534" lon="4.71544">
        <ele>488</ele>
        <time>2020-09-22T10:48:33Z</time>
      </trkpt>
      <trkpt lat="46.44532" lon="4.71525">
        <ele>489</ele>
        <time>2020-09-22T10:48:36Z</time>
      </trkpt>
      <trkpt lat="46.44527" lon="4.71517">
        <ele>490</ele>
        <time>2020-09-22T10:48:38Z</time>
      </trkpt>
      <trkpt lat="46.44522" lon="4.71514">
        <ele>490</ele>
        <time>2020-09-22T10:48:39Z</time>
      </trkpt>
      <trkpt lat="46.44518" lon="4.71494">
        <ele>491</ele>
        <time>2020-09-22T10:48:42Z</time>
      </trkpt>
      <trkpt lat="46.44519" lon="4.71485">
        <ele>492</ele>
        <time>2020-09-22T10:48:44Z</time>
      </trkpt>
      <trkpt lat="46.44545" lon="4.71406">
        <ele>498</ele>
        <time>2020-09-22T10:48:58Z</time>
      </trkpt>
      <trkpt lat="46.44554" lon="4.71395">
        <ele>498</ele>
        <time>2020-09-22T10:49:01Z</time>
      </trkpt>
      <trkpt lat="46.44569" lon="4.71396">
        <ele>498</ele>
        <time>2020-09-22T10:49:04Z</time>
      </trkpt>
      <trkpt lat="46.44599" lon="4.71406">
        <ele>497</ele>
        <time>2020-09-22T10:49:11Z</time>
      </trkpt>
      <trkpt lat="46.44615" lon="4.714">
        <ele>496</ele>
        <time>2020-09-22T10:49:15Z</time>
      </trkpt>
      <trkpt lat="46.44665" lon="4.71391">
        <ele>492</ele>
        <time>2020-09-22T10:49:27Z</time>
      </trkpt>
      <trkpt lat="46.44676" lon="4.71387">
        <ele>492</ele>
        <time>2020-09-22T10:49:30Z</time>
      </trkpt>
      <trkpt lat="46.44701" lon="4.71369">
        <ele>490</ele>
        <time>2020-09-22T10:49:36Z</time>
      </trkpt>
      <trkpt lat="46.44707" lon="4.7137">
        <ele>490</ele>
        <time>2020-09-22T10:49:38Z</time>
      </trkpt>
      <trkpt lat="46.44734" lon="4.71398">
        <ele>489</ele>
        <time>2020-09-22T10:49:45Z</time>
      </trkpt>
      <trkpt lat="46.44753" lon="4.71411">
        <ele>489</ele>
        <time>2020-09-22T10:49:50Z</time>
      </trkpt>
      <trkpt lat="46.44777" lon="4.71413">
        <ele>489</ele>
        <time>2020-09-22T10:49:56Z</time>
      </trkpt>
      <trkpt lat="46.44798" lon="4.71418">
        <ele>489</ele>
        <time>2020-09-22T10:50:01Z</time>
      </trkpt>
      <trkpt lat="46.44866" lon="4.71421">
        <ele>490</ele>
        <time>2020-09-22T10:50:17Z</time>
      </trkpt>
      <trkpt lat="46.44871" lon="4.71424">
        <ele>490</ele>
        <time>2020-09-22T10:50:18Z</time>
      </trkpt>
      <trkpt lat="46.44895" lon="4.71456">
        <ele>491</ele>
        <time>2020-09-22T10:50:26Z</time>
      </trkpt>
      <trkpt lat="46.44912" lon="4.7147">
        <ele>492</ele>
        <time>2020-09-22T10:50:30Z</time>
      </trkpt>
      <trkpt lat="46.4492" lon="4.71473">
        <ele>492</ele>
        <time>2020-09-22T10:50:32Z</time>
      </trkpt>
      <trkpt lat="46.44961" lon="4.71467">
        <ele>489</ele>
        <time>2020-09-22T10:50:42Z</time>
      </trkpt>
      <trkpt lat="46.44988" lon="4.71468">
        <ele>488</ele>
        <time>2020-09-22T10:50:48Z</time>
      </trkpt>
      <trkpt lat="46.45019" lon="4.71486">
        <ele>488</ele>
        <time>2020-09-22T10:50:56Z</time>
      </trkpt>
      <trkpt lat="46.45055" lon="4.71512">
        <ele>485</ele>
        <time>2020-09-22T10:51:05Z</time>
      </trkpt>
      <trkpt lat="46.45073" lon="4.71521">
        <ele>483</ele>
        <time>2020-09-22T10:51:10Z</time>
      </trkpt>
      <trkpt lat="46.45113" lon="4.71531">
        <ele>479</ele>
        <time>2020-09-22T10:51:19Z</time>
      </trkpt>
      <trkpt lat="46.45163" lon="4.71554">
        <ele>478</ele>
        <time>2020-09-22T10:51:31Z</time>
      </trkpt>
      <trkpt lat="46.45175" lon="4.71554">
        <ele>477</ele>
        <time>2020-09-22T10:51:34Z</time>
      </trkpt>
      <trkpt lat="46.45192" lon="4.71566">
        <ele>478</ele>
        <time>2020-09-22T10:51:39Z</time>
      </trkpt>
      <trkpt lat="46.4525" lon="4.71595">
        <ele>478</ele>
        <time>2020-09-22T10:51:53Z</time>
      </trkpt>
      <trkpt lat="46.45284" lon="4.71603">
        <ele>477</ele>
        <time>2020-09-22T10:52:01Z</time>
      </trkpt>
      <trkpt lat="46.45302" lon="4.71594">
        <ele>477</ele>
        <time>2020-09-22T10:52:05Z</time>
      </trkpt>
      <trkpt lat="46.45392" lon="4.71574">
        <ele>477</ele>
        <time>2020-09-22T10:52:27Z</time>
      </trkpt>
      <trkpt lat="46.45385" lon="4.7155">
        <ele>476</ele>
        <time>2020-09-22T10:52:31Z</time>
      </trkpt>
      <trkpt lat="46.45372" lon="4.71531">
        <ele>473</ele>
        <time>2020-09-22T10:52:35Z</time>
      </trkpt>
      <trkpt lat="46.45336" lon="4.71506">
        <ele>467</ele>
        <time>2020-09-22T10:52:45Z</time>
      </trkpt>
      <trkpt lat="46.45277" lon="4.71478">
        <ele>462</ele>
        <time>2020-09-22T10:52:59Z</time>
      </trkpt>
      <trkpt lat="46.45229" lon="4.71452">
        <ele>459</ele>
        <time>2020-09-22T10:53:11Z</time>
      </trkpt>
      <trkpt lat="46.45207" lon="4.71438">
        <ele>459</ele>
        <time>2020-09-22T10:53:17Z</time>
      </trkpt>
      <trkpt lat="46.45192" lon="4.71423">
        <ele>458</ele>
        <time>2020-09-22T10:53:21Z</time>
      </trkpt>
      <trkpt lat="46.45164" lon="4.71386">
        <ele>454</ele>
        <time>2020-09-22T10:53:30Z</time>
      </trkpt>
      <trkpt lat="46.45154" lon="4.71369">
        <ele>453</ele>
        <time>2020-09-22T10:53:33Z</time>
      </trkpt>
      <trkpt lat="46.4514" lon="4.71337">
        <ele>450</ele>
        <time>2020-09-22T10:53:39Z</time>
      </trkpt>
      <trkpt lat="46.45105" lon="4.71223">
        <ele>444</ele>
        <time>2020-09-22T10:53:59Z</time>
      </trkpt>
      <trkpt lat="46.45075" lon="4.71175">
        <ele>442</ele>
        <time>2020-09-22T10:54:10Z</time>
      </trkpt>
      <trkpt lat="46.45055" lon="4.71138">
        <ele>440</ele>
        <time>2020-09-22T10:54:17Z</time>
      </trkpt>
      <trkpt lat="46.45039" lon="4.71121">
        <ele>439</ele>
        <time>2020-09-22T10:54:22Z</time>
      </trkpt>
      <trkpt lat="46.44994" lon="4.71084">
        <ele>437</ele>
        <time>2020-09-22T10:54:34Z</time>
      </trkpt>
      <trkpt lat="46.44913" lon="4.70968">
        <ele>425</ele>
        <time>2020-09-22T10:55:01Z</time>
      </trkpt>
      <trkpt lat="46.44893" lon="4.70946">
        <ele>425</ele>
        <time>2020-09-22T10:55:07Z</time>
      </trkpt>
      <trkpt lat="46.44894" lon="4.70917">
        <ele>422</ele>
        <time>2020-09-22T10:55:11Z</time>
      </trkpt>
      <trkpt lat="46.44904" lon="4.7089">
        <ele>420</ele>
        <time>2020-09-22T10:55:16Z</time>
      </trkpt>
      <trkpt lat="46.44912" lon="4.70847">
        <ele>417</ele>
        <time>2020-09-22T10:55:23Z</time>
      </trkpt>
      <trkpt lat="46.44919" lon="4.70834">
        <ele>416</ele>
        <time>2020-09-22T10:55:26Z</time>
      </trkpt>
      <trkpt lat="46.44948" lon="4.70799">
        <ele>413</ele>
        <time>2020-09-22T10:55:35Z</time>
      </trkpt>
      <trkpt lat="46.45004" lon="4.70752">
        <ele>410</ele>
        <time>2020-09-22T10:55:50Z</time>
      </trkpt>
      <trkpt lat="46.4502" lon="4.70734">
        <ele>412</ele>
        <time>2020-09-22T10:55:55Z</time>
      </trkpt>
      <trkpt lat="46.45068" lon="4.70652">
        <ele>411</ele>
        <time>2020-09-22T10:56:12Z</time>
      </trkpt>
      <trkpt lat="46.451" lon="4.70566">
        <ele>407</ele>
        <time>2020-09-22T10:56:28Z</time>
      </trkpt>
      <trkpt lat="46.45114" lon="4.70525">
        <ele>402</ele>
        <time>2020-09-22T10:56:35Z</time>
      </trkpt>
      <trkpt lat="46.45131" lon="4.70438">
        <ele>393</ele>
        <time>2020-09-22T10:56:50Z</time>
      </trkpt>
      <trkpt lat="46.45132" lon="4.70396">
        <ele>391</ele>
        <time>2020-09-22T10:56:56Z</time>
      </trkpt>
      <trkpt lat="46.45122" lon="4.70265">
        <ele>382</ele>
        <time>2020-09-22T10:57:18Z</time>
      </trkpt>
      <trkpt lat="46.45126" lon="4.70225">
        <ele>376</ele>
        <time>2020-09-22T10:57:24Z</time>
      </trkpt>
      <trkpt lat="46.45151" lon="4.70143">
        <ele>360</ele>
        <time>2020-09-22T10:57:39Z</time>
      </trkpt>
      <trkpt lat="46.45168" lon="4.7011">
        <ele>355</ele>
        <time>2020-09-22T10:57:45Z</time>
      </trkpt>
      <trkpt lat="46.45235" lon="4.69963">
        <ele>335</ele>
        <time>2020-09-22T10:58:13Z</time>
      </trkpt>
      <trkpt lat="46.45239" lon="4.6995">
        <ele>334</ele>
        <time>2020-09-22T10:58:16Z</time>
      </trkpt>
      <trkpt lat="46.45172" lon="4.69945">
        <ele>335</ele>
        <time>2020-09-22T10:58:31Z</time>
      </trkpt>
      <trkpt lat="46.4513" lon="4.69939">
        <ele>336</ele>
        <time>2020-09-22T10:58:41Z</time>
      </trkpt>
      <trkpt lat="46.45104" lon="4.6994">
        <ele>338</ele>
        <time>2020-09-22T10:58:47Z</time>
      </trkpt>
      <trkpt lat="46.45068" lon="4.69932">
        <ele>339</ele>
        <time>2020-09-22T10:58:56Z</time>
      </trkpt>
      <trkpt lat="46.45048" lon="4.6992">
        <ele>339</ele>
        <time>2020-09-22T10:59:01Z</time>
      </trkpt>
      <trkpt lat="46.44995" lon="4.69854">
        <ele>334</ele>
        <time>2020-09-22T10:59:17Z</time>
      </trkpt>
      <trkpt lat="46.44984" lon="4.69834">
        <ele>332</ele>
        <time>2020-09-22T10:59:21Z</time>
      </trkpt>
      <trkpt lat="46.44961" lon="4.69693">
        <ele>327</ele>
        <time>2020-09-22T10:59:45Z</time>
      </trkpt>
      <trkpt lat="46.44959" lon="4.69665">
        <ele>325</ele>
        <time>2020-09-22T10:59:49Z</time>
      </trkpt>
      <trkpt lat="46.44942" lon="4.69587">
        <ele>320</ele>
        <time>2020-09-22T11:00:02Z</time>
      </trkpt>
      <trkpt lat="46.44943" lon="4.69493">
        <ele>314</ele>
        <time>2020-09-22T11:00:18Z</time>
      </trkpt>
      <trkpt lat="46.44956" lon="4.69467">
        <ele>313</ele>
        <time>2020-09-22T11:00:23Z</time>
      </trkpt>
      <trkpt lat="46.44968" lon="4.69401">
        <ele>310</ele>
        <time>2020-09-22T11:00:34Z</time>
      </trkpt>
      <trkpt lat="46.44952" lon="4.69305">
        <ele>305</ele>
        <time>2020-09-22T11:00:50Z</time>
      </trkpt>
      <trkpt lat="46.44952" lon="4.69281">
        <ele>305</ele>
        <time>2020-09-22T11:00:53Z</time>
      </trkpt>
      <trkpt lat="46.44934" lon="4.69175">
        <ele>302</ele>
        <time>2020-09-22T11:01:11Z</time>
      </trkpt>
      <trkpt lat="46.44932" lon="4.69127">
        <ele>300</ele>
        <time>2020-09-22T11:01:19Z</time>
      </trkpt>
      <trkpt lat="46.44933" lon="4.69058">
        <ele>298</ele>
        <time>2020-09-22T11:01:30Z</time>
      </trkpt>
      <trkpt lat="46.44925" lon="4.68995">
        <ele>296</ele>
        <time>2020-09-22T11:01:40Z</time>
      </trkpt>
      <trkpt lat="46.44927" lon="4.6895">
        <ele>292</ele>
        <time>2020-09-22T11:01:47Z</time>
      </trkpt>
      <trkpt lat="46.4492" lon="4.68898">
        <ele>288</ele>
        <time>2020-09-22T11:01:56Z</time>
      </trkpt>
      <trkpt lat="46.44919" lon="4.68852">
        <ele>284</ele>
        <time>2020-09-22T11:02:03Z</time>
      </trkpt>
      <trkpt lat="46.44916" lon="4.68835">
        <ele>283</ele>
        <time>2020-09-22T11:02:06Z</time>
      </trkpt>
      <trkpt lat="46.44936" lon="4.6882">
        <ele>283</ele>
        <time>2020-09-22T11:02:11Z</time>
      </trkpt>
      <trkpt lat="46.44898" lon="4.68751">
        <ele>281</ele>
        <time>2020-09-22T11:02:26Z</time>
      </trkpt>
      <trkpt lat="46.44888" lon="4.68737">
        <ele>281</ele>
        <time>2020-09-22T11:02:29Z</time>
      </trkpt>
      <trkpt lat="46.44899" lon="4.68675">
        <ele>282</ele>
        <time>2020-09-22T11:02:39Z</time>
      </trkpt>
      <trkpt lat="46.4492" lon="4.68645">
        <ele>282</ele>
        <time>2020-09-22T11:02:46Z</time>
      </trkpt>
      <trkpt lat="46.44946" lon="4.68587">
        <ele>283</ele>
        <time>2020-09-22T11:02:57Z</time>
      </trkpt>
      <trkpt lat="46.44981" lon="4.68521">
        <ele>284</ele>
        <time>2020-09-22T11:03:11Z</time>
      </trkpt>
      <trkpt lat="46.44992" lon="4.6851">
        <ele>284</ele>
        <time>2020-09-22T11:03:14Z</time>
      </trkpt>
      <trkpt lat="46.45058" lon="4.68462">
        <ele>284</ele>
        <time>2020-09-22T11:03:31Z</time>
      </trkpt>
      <trkpt lat="46.45067" lon="4.68457">
        <ele>284</ele>
        <time>2020-09-22T11:03:33Z</time>
      </trkpt>
      <trkpt lat="46.45101" lon="4.68446">
        <ele>283</ele>
        <time>2020-09-22T11:03:41Z</time>
      </trkpt>
      <trkpt lat="46.45118" lon="4.68437">
        <ele>282</ele>
        <time>2020-09-22T11:03:46Z</time>
      </trkpt>
      <trkpt lat="46.45184" lon="4.68383">
        <ele>279</ele>
        <time>2020-09-22T11:04:03Z</time>
      </trkpt>
      <trkpt lat="46.45196" lon="4.68368">
        <ele>279</ele>
        <time>2020-09-22T11:04:07Z</time>
      </trkpt>
      <trkpt lat="46.45217" lon="4.68332">
        <ele>280</ele>
        <time>2020-09-22T11:04:15Z</time>
      </trkpt>
      <trkpt lat="46.45255" lon="4.68281">
        <ele>280</ele>
        <time>2020-09-22T11:04:27Z</time>
      </trkpt>
      <trkpt lat="46.45298" lon="4.68229">
        <ele>277</ele>
        <time>2020-09-22T11:04:40Z</time>
      </trkpt>
      <trkpt lat="46.45318" lon="4.68192">
        <ele>275</ele>
        <time>2020-09-22T11:04:47Z</time>
      </trkpt>
      <trkpt lat="46.45339" lon="4.68126">
        <ele>273</ele>
        <time>2020-09-22T11:04:59Z</time>
      </trkpt>
      <trkpt lat="46.45381" lon="4.68028">
        <ele>270</ele>
        <time>2020-09-22T11:05:18Z</time>
      </trkpt>
      <trkpt lat="46.45442" lon="4.67917">
        <ele>265</ele>
        <time>2020-09-22T11:05:40Z</time>
      </trkpt>
      <trkpt lat="46.45485" lon="4.6783">
        <ele>263</ele>
        <time>2020-09-22T11:05:58Z</time>
      </trkpt>
      <trkpt lat="46.45528" lon="4.67762">
        <ele>258</ele>
        <time>2020-09-22T11:06:12Z</time>
      </trkpt>
      <trkpt lat="46.45535" lon="4.67738">
        <ele>255</ele>
        <time>2020-09-22T11:06:17Z</time>
      </trkpt>
      <trkpt lat="46.45535" lon="4.67727">
        <ele>254</ele>
        <time>2020-09-22T11:06:18Z</time>
      </trkpt>
      <trkpt lat="46.45532" lon="4.677">
        <ele>252</ele>
        <time>2020-09-22T11:06:23Z</time>
      </trkpt>
      <trkpt lat="46.45521" lon="4.67647">
        <ele>248</ele>
        <time>2020-09-22T11:06:32Z</time>
      </trkpt>
      <trkpt lat="46.45526" lon="4.67593">
        <ele>243</ele>
        <time>2020-09-22T11:06:40Z</time>
      </trkpt>
      <trkpt lat="46.45524" lon="4.67578">
        <ele>242</ele>
        <time>2020-09-22T11:06:43Z</time>
      </trkpt>
      <trkpt lat="46.45515" lon="4.67554">
        <ele>241</ele>
        <time>2020-09-22T11:06:47Z</time>
      </trkpt>
      <trkpt lat="46.45506" lon="4.67491">
        <ele>238</ele>
        <time>2020-09-22T11:06:58Z</time>
      </trkpt>
      <trkpt lat="46.45505" lon="4.67468">
        <ele>236</ele>
        <time>2020-09-22T11:07:01Z</time>
      </trkpt>
      <trkpt lat="46.45368" lon="4.67465">
        <ele>242</ele>
        <time>2020-09-22T11:07:33Z</time>
      </trkpt>
      <trkpt lat="46.45324" lon="4.67459">
        <ele>243</ele>
        <time>2020-09-22T11:07:44Z</time>
      </trkpt>
      <trkpt lat="46.45284" lon="4.67448">
        <ele>245</ele>
        <time>2020-09-22T11:07:53Z</time>
      </trkpt>
      <trkpt lat="46.45052" lon="4.67365">
        <ele>250</ele>
        <time>2020-09-22T11:08:49Z</time>
      </trkpt>
      <trkpt lat="46.45016" lon="4.67348">
        <ele>249</ele>
        <time>2020-09-22T11:08:58Z</time>
      </trkpt>
      <trkpt lat="46.44974" lon="4.67308">
        <ele>245</ele>
        <time>2020-09-22T11:09:10Z</time>
      </trkpt>
      <trkpt lat="46.44953" lon="4.67293">
        <ele>244</ele>
        <time>2020-09-22T11:09:15Z</time>
      </trkpt>
      <trkpt lat="46.44934" lon="4.67284">
        <ele>243</ele>
        <time>2020-09-22T11:09:20Z</time>
      </trkpt>
      <trkpt lat="46.449" lon="4.67275">
        <ele>244</ele>
        <time>2020-09-22T11:09:28Z</time>
      </trkpt>
      <trkpt lat="46.44843" lon="4.67274">
        <ele>246</ele>
        <time>2020-09-22T11:09:41Z</time>
      </trkpt>
      <trkpt lat="46.44823" lon="4.6727">
        <ele>247</ele>
        <time>2020-09-22T11:09:46Z</time>
      </trkpt>
      <trkpt lat="46.44801" lon="4.67261">
        <ele>247</ele>
        <time>2020-09-22T11:09:51Z</time>
      </trkpt>
      <trkpt lat="46.44594" lon="4.67154">
        <ele>247</ele>
        <time>2020-09-22T11:10:42Z</time>
      </trkpt>
      <trkpt lat="46.44557" lon="4.6714">
        <ele>246</ele>
        <time>2020-09-22T11:10:51Z</time>
      </trkpt>
      <trkpt lat="46.44506" lon="4.67125">
        <ele>246</ele>
        <time>2020-09-22T11:11:04Z</time>
      </trkpt>
      <trkpt lat="46.44342" lon="4.67158">
        <ele>240</ele>
        <time>2020-09-22T11:11:42Z</time>
      </trkpt>
      <trkpt lat="46.44324" lon="4.67174">
        <ele>240</ele>
        <time>2020-09-22T11:11:47Z</time>
      </trkpt>
      <trkpt lat="46.44311" lon="4.67174">
        <ele>240</ele>
        <time>2020-09-22T11:11:50Z</time>
      </trkpt>
      <trkpt lat="46.442" lon="4.67207">
        <ele>240</ele>
        <time>2020-09-22T11:12:17Z</time>
      </trkpt>
      <trkpt lat="46.44141" lon="4.67219">
        <ele>241</ele>
        <time>2020-09-22T11:12:31Z</time>
      </trkpt>
      <trkpt lat="46.44131" lon="4.67216">
        <ele>242</ele>
        <time>2020-09-22T11:12:33Z</time>
      </trkpt>
      <trkpt lat="46.44128" lon="4.6721">
        <ele>242</ele>
        <time>2020-09-22T11:12:34Z</time>
      </trkpt>
      <trkpt lat="46.44121" lon="4.67155">
        <ele>240</ele>
        <time>2020-09-22T11:12:43Z</time>
      </trkpt>
      <trkpt lat="46.44112" lon="4.67131">
        <ele>239</ele>
        <time>2020-09-22T11:12:48Z</time>
      </trkpt>
      <trkpt lat="46.44062" lon="4.67042">
        <ele>234</ele>
        <time>2020-09-22T11:13:06Z</time>
      </trkpt>
      <trkpt lat="46.43998" lon="4.66909">
        <ele>233</ele>
        <time>2020-09-22T11:13:32Z</time>
      </trkpt>
      <trkpt lat="46.43991" lon="4.66901">
        <ele>233</ele>
        <time>2020-09-22T11:13:34Z</time>
      </trkpt>
      <trkpt lat="46.43965" lon="4.66889">
        <ele>233</ele>
        <time>2020-09-22T11:13:41Z</time>
      </trkpt>
      <trkpt lat="46.43942" lon="4.66869">
        <ele>233</ele>
        <time>2020-09-22T11:13:47Z</time>
      </trkpt>
      <trkpt lat="46.43926" lon="4.66847">
        <ele>233</ele>
        <time>2020-09-22T11:13:52Z</time>
      </trkpt>
      <trkpt lat="46.4392" lon="4.66827">
        <ele>233</ele>
        <time>2020-09-22T11:13:55Z</time>
      </trkpt>
      <trkpt lat="46.43912" lon="4.66814">
        <ele>233</ele>
        <time>2020-09-22T11:13:58Z</time>
      </trkpt>
      <trkpt lat="46.43787" lon="4.66752">
        <ele>233</ele>
        <time>2020-09-22T11:14:29Z</time>
      </trkpt>
      <trkpt lat="46.4376" lon="4.66731">
        <ele>233</ele>
        <time>2020-09-22T11:14:36Z</time>
      </trkpt>
      <trkpt lat="46.43715" lon="4.66682">
        <ele>233</ele>
        <time>2020-09-22T11:14:49Z</time>
      </trkpt>
      <trkpt lat="46.43688" lon="4.66657">
        <ele>234</ele>
        <time>2020-09-22T11:14:57Z</time>
      </trkpt>
      <trkpt lat="46.43669" lon="4.66641">
        <ele>234</ele>
        <time>2020-09-22T11:15:02Z</time>
      </trkpt>
      <trkpt lat="46.43637" lon="4.66621">
        <ele>234</ele>
        <time>2020-09-22T11:15:10Z</time>
      </trkpt>
      <trkpt lat="46.43625" lon="4.66615">
        <ele>233</ele>
        <time>2020-09-22T11:15:13Z</time>
      </trkpt>
      <trkpt lat="46.43612" lon="4.66612">
        <ele>233</ele>
        <time>2020-09-22T11:15:16Z</time>
      </trkpt>
      <trkpt lat="46.43567" lon="4.66611">
        <ele>233</ele>
        <time>2020-09-22T11:15:27Z</time>
      </trkpt>
      <trkpt lat="46.43552" lon="4.66608">
        <ele>233</ele>
        <time>2020-09-22T11:15:30Z</time>
      </trkpt>
      <trkpt lat="46.43536" lon="4.66604">
        <ele>233</ele>
        <time>2020-09-22T11:15:34Z</time>
      </trkpt>
      <trkpt lat="46.43502" lon="4.66588">
        <ele>233</ele>
        <time>2020-09-22T11:15:42Z</time>
      </trkpt>
      <trkpt lat="46.43443" lon="4.66578">
        <ele>233</ele>
        <time>2020-09-22T11:15:56Z</time>
      </trkpt>
      <trkpt lat="46.43482" lon="4.66467">
        <ele>233</ele>
        <time>2020-09-22T11:16:16Z</time>
      </trkpt>
      <trkpt lat="46.43483" lon="4.66436">
        <ele>233</ele>
        <time>2020-09-22T11:16:21Z</time>
      </trkpt>
      <trkpt lat="46.43486" lon="4.66433">
        <ele>233</ele>
        <time>2020-09-22T11:16:22Z</time>
      </trkpt>
      <trkpt lat="46.4346" lon="4.66397">
        <ele>234</ele>
        <time>2020-09-22T11:16:31Z</time>
      </trkpt>
      <trkpt lat="46.43502" lon="4.66386">
        <ele>232</ele>
        <time>2020-09-22T11:16:41Z</time>
      </trkpt>
      <trkpt lat="46.43512" lon="4.66375">
        <ele>232</ele>
        <time>2020-09-22T11:16:43Z</time>
      </trkpt>
      <trkpt lat="46.43521" lon="4.66353">
        <ele>233</ele>
        <time>2020-09-22T11:16:48Z</time>
      </trkpt>
      <trkpt lat="46.43523" lon="4.66342">
        <ele>233</ele>
        <time>2020-09-22T11:16:49Z</time>
      </trkpt>
      <trkpt lat="46.43519" lon="4.66319">
        <ele>233</ele>
        <time>2020-09-22T11:16:53Z</time>
      </trkpt>
      <trkpt lat="46.43512" lon="4.66307">
        <ele>234</ele>
        <time>2020-09-22T11:16:56Z</time>
      </trkpt>
      <trkpt lat="46.43497" lon="4.66297">
        <ele>233</ele>
        <time>2020-09-22T11:17:00Z</time>
      </trkpt>
      <trkpt lat="46.43472" lon="4.66285">
        <ele>234</ele>
        <time>2020-09-22T11:17:06Z</time>
      </trkpt>
      <trkpt lat="46.43337" lon="4.66233">
        <ele>237</ele>
        <time>2020-09-22T11:17:38Z</time>
      </trkpt>
      <trkpt lat="46.43302" lon="4.66377">
        <ele>236</ele>
        <time>2020-09-22T11:18:03Z</time>
      </trkpt>
      <trkpt lat="46.43298" lon="4.66407">
        <ele>235</ele>
        <time>2020-09-22T11:18:08Z</time>
      </trkpt>
      <trkpt lat="46.43269" lon="4.66403">
        <ele>235</ele>
        <time>2020-09-22T11:18:15Z</time>
      </trkpt>
      <trkpt lat="46.43222" lon="4.66391">
        <ele>235</ele>
        <time>2020-09-22T11:18:26Z</time>
      </trkpt>
      <trkpt lat="46.43222" lon="4.66437">
        <ele>235</ele>
        <time>2020-09-22T11:18:33Z</time>
      </trkpt>
      <trkpt lat="46.4323" lon="4.66499">
        <ele>236</ele>
        <time>2020-09-22T11:18:43Z</time>
      </trkpt>
      <trkpt lat="46.4324" lon="4.66627">
        <ele>235</ele>
        <time>2020-09-22T11:19:04Z</time>
      </trkpt>
      <trkpt lat="46.4324" lon="4.66742">
        <ele>236</ele>
        <time>2020-09-22T11:19:23Z</time>
      </trkpt>
      <trkpt lat="46.43156" lon="4.66748">
        <ele>236</ele>
        <time>2020-09-22T11:19:42Z</time>
      </trkpt>
    </trkseg>
  </trk>
</gpx>